< < Back
Terminal Aerodrome Forecast


Current Version              Previous Versions:   1  2  3  4  5  6  7  8  9  

Terminal Aerodrome Forecast

501
FTUS44 KMRX 242320
TAFTYS
TAF
KTYS 242320Z 2500/2524 05004KT P6SM SCT200
     FM250100 00000KT P6SM SCT250
     FM251400 04005KT P6SM SCT150 BKN250=



Latest METAR

530
SAUS80 KWBC 250300 CCA
MTRTYS
METAR KTYS 250253Z 00000KT 10SM CLR 11/07 A3007 RMK AO2 SLP182 T01060067
53007


USA.gov is the U.S. government's official web portal to all federal, state and local government web resources and services.